Time;durP1;ratioP1;P1;durP2;ratioP2;P2;SDS_P1;SDS_P2;PMS_P1;PMS_P2;Temp;Humidity;BMP_temperature;BMP_pressure;BME280_temperature;BME280_humidity;BME280_pressure;Samples;Min_cycle;Max_cycle;Signal;HPM_P1;HPM_P2
2022/04/26 03:36:12;;;;;;;27.80;11.23;;;;;;;6.14;100.00;101636.88;10349711;28;20081;-72
2022/04/26 03:41:13;;;;;;;23.27;12.40;;;;;;;6.17;100.00;101636.47;10351201;28;20160;-72
2022/04/26 03:46:14;;;;;;;32.33;11.55;;;;;;;6.20;100.00;101641.50;10350473;28;20030;-71
2022/04/26 03:51:14;;;;;;;24.42;10.60;;;;;;;6.22;100.00;101636.69;10352785;28;20030;-71
2022/04/26 03:56:15;;;;;;;23.80;10.75;;;;;;;6.24;100.00;101631.84;10350143;28;20061;-71
2022/04/26 04:01:15;;;;;;;20.13;9.45;;;;;;;5.98;100.00;101581.53;10350653;28;20023;-72
2022/04/26 04:06:16;;;;;;;21.05;9.30;;;;;;;6.25;100.00;101628.91;10317347;28;20042;-72
2022/04/26 04:11:16;;;;;;;23.08;9.65;;;;;;;6.37;100.00;101650.19;10325014;28;20066;-72
2022/04/26 04:16:17;;;;;;;20.73;8.68;;;;;;;6.36;100.00;101640.28;10310554;28;20544;-71
2022/04/26 04:21:17;;;;;;;17.75;8.52;;;;;;;6.39;100.00;101645.38;10309175;28;20062;-72
2022/04/26 04:26:18;;;;;;;19.30;7.60;;;;;;;6.34;100.00;101631.44;10308438;28;20054;-72
2022/04/26 04:31:18;;;;;;;17.85;7.28;;;;;;;6.42;100.00;101644.94;10323578;28;20464;-72
2022/04/26 04:36:19;;;;;;;16.33;7.15;;;;;;;6.53;100.00;101655.28;10307759;28;20030;-71
2022/04/26 04:41:19;;;;;;;22.33;6.57;;;;;;;6.56;100.00;101657.56;10340615;28;20046;-72
2022/04/26 04:46:20;;;;;;;14.30;5.78;;;;;;;6.48;100.00;101646.84;10349371;28;20042;-71
2022/04/26 04:51:20;;;;;;;16.08;6.88;;;;;;;6.51;100.00;101646.44;10349760;28;20698;-72
2022/04/26 04:56:23;;;;;;;18.40;6.53;;;;;;;6.60;100.00;101664.31;10349042;28;20126;-71
2022/04/26 05:01:23;;;;;;;23.35;7.53;;;;;;;6.62;100.00;101666.84;10336129;28;20031;-72
2022/04/26 05:06:24;;;;;;;13.48;6.65;;;;;;;6.50;100.00;101663.03;10307524;28;20046;-72
2022/04/26 05:11:24;;;;;;;18.25;7.35;;;;;;;6.47;100.00;101656.09;10308158;28;20021;-72
2022/04/26 05:16:25;;;;;;;19.27;7.05;;;;;;;6.46;100.00;101670.81;10307710;28;20023;-71
2022/04/26 05:21:25;;;;;;;19.13;6.45;;;;;;;6.50;100.00;101685.75;10307018;28;20050;-71
2022/04/26 05:26:26;;;;;;;17.95;6.57;;;;;;;6.44;100.00;101678.38;10306116;28;20053;-71
2022/04/26 05:31:26;;;;;;;15.52;7.30;;;;;;;6.54;100.00;101691.69;10340802;28;20555;-71
2022/04/26 05:36:27;;;;;;;14.07;6.30;;;;;;;6.57;100.00;101691.25;10313239;28;20026;-72
2022/04/26 05:41:27;;;;;;;14.55;6.40;;;;;;;6.77;100.00;101702.22;10306649;28;20031;-71
2022/04/26 05:46:28;;;;;;;19.30;6.28;;;;;;;6.83;100.00;101693.19;10307261;28;20045;-71
2022/04/26 05:51:28;;;;;;;20.55;6.03;;;;;;;7.10;100.00;101701.41;10307053;28;20121;-72
2022/04/26 05:56:28;;;;;;;10.48;4.70;;;;;;;7.31;100.00;101709.38;10306676;28;20027;-72
2022/04/26 06:01:29;;;;;;;17.23;5.88;;;;;;;7.54;100.00;101708.09;10317625;28;20097;-71
2022/04/26 06:06:29;;;;;;;11.90;5.07;;;;;;;7.57;100.00;101696.72;10345427;28;20053;-72
2022/04/26 06:11:30;;;;;;;20.65;5.13;;;;;;;7.69;100.00;101705.97;10344396;28;20034;-71
2022/04/26 06:16:31;;;;;;;10.30;4.97;;;;;;;7.91;100.00;101731.19;10345907;28;20046;-72
2022/04/26 06:21:31;;;;;;;17.05;5.05;;;;;;;8.01;100.00;101737.06;10346480;28;20046;-71
2022/04/26 06:26:32;;;;;;;12.07;4.70;;;;;;;8.09;100.00;101728.59;10350306;28;20098;-72
2022/04/26 06:31:32;;;;;;;37.22;6.82;;;;;;;8.32;100.00;101740.13;10352980;28;20030;-71
2022/04/26 06:36:33;;;;;;;12.32;4.63;;;;;;;8.41;100.00;101723.22;10353457;28;20030;-71
2022/04/26 06:41:33;;;;;;;10.77;4.75;;;;;;;8.65;100.00;101742.72;10353822;28;20022;-71
2022/04/26 06:46:36;;;;;;;8.13;4.00;;;;;;;8.81;100.00;101735.88;10360448;28;20033;-71
2022/04/26 06:51:40;;;;;;;12.40;5.50;;;;;;;8.96;100.00;101732.81;10392243;28;20544;-71
2022/04/26 06:56:41;;;;;;;9.65;3.50;;;;;;;9.20;100.00;101731.13;10376061;28;20030;-72
2022/04/26 07:01:41;;;;;;;13.43;4.68;;;;;;;9.36;100.00;101732.47;10392072;28;20601;-72
2022/04/26 07:06:42;;;;;;;11.02;3.65;;;;;;;9.57;100.00;101744.94;10353324;28;20042;-71
2022/04/26 07:11:43;;;;;;;12.25;4.10;;;;;;;9.56;100.00;101755.13;10353159;28;20038;-71
2022/04/26 07:16:48;;;;;;;10.07;3.30;;;;;;;9.42;100.00;101753.56;10353479;28;20529;-72
2022/04/26 07:21:48;;;;;;;7.63;2.92;;;;;;;9.34;100.00;101760.16;10335400;28;20089;-71
2022/04/26 07:26:50;;;;;;;8.80;3.20;;;;;;;9.22;100.00;101776.56;10352161;28;20065;-71
2022/04/26 07:31:50;;;;;;;8.02;3.28;;;;;;;9.06;100.00;101777.94;10351756;28;20146;-71
2022/04/26 07:36:52;;;;;;;9.05;3.42;;;;;;;9.18;100.00;101766.25;10383062;28;20030;-72
2022/04/26 07:41:53;;;;;;;12.55;3.67;;;;;;;9.20;100.00;101783.31;10389388;28;20103;-71
2022/04/26 07:46:53;;;;;;;10.60;3.90;;;;;;;9.21;100.00;101779.53;10391630;28;20375;-71
2022/04/26 07:51:54;;;;;;;13.75;4.40;;;;;;;9.23;100.00;101774.66;10389315;28;20066;-71
2022/04/26 07:56:55;;;;;;;7.95;3.28;;;;;;;9.24;100.00;101788.16;10389016;28;20092;-71
2022/04/26 08:01:56;;;;;;;11.30;3.35;;;;;;;9.29;100.00;101782.00;10388527;28;20034;-71
2022/04/26 08:06:56;;;;;;;13.50;3.75;;;;;;;9.41;100.00;101785.69;10389893;28;20045;-72
2022/04/26 08:11:57;;;;;;;5.28;2.70;;;;;;;9.42;100.00;101787.38;10390502;28;20433;-71
2022/04/26 08:16:57;;;;;;;7.80;3.10;;;;;;;9.67;100.00;101798.38;10391045;28;20029;-71
2022/04/26 08:21:58;;;;;;;8.30;2.60;;;;;;;9.94;100.00;101811.00;10379432;28;20038;-72
2022/04/26 08:32:18;;;;;;;5.85;2.78;;;;;;;10.15;100.00;101791.34;10308942;28;20037;-71
2022/04/26 08:37:18;;;;;;;9.68;2.70;;;;;;;10.58;100.00;101826.19;10315677;28;20034;-72
2022/04/26 08:42:36;;;;;;;8.23;3.20;;;;;;;10.51;100.00;101806.16;10347867;28;20046;-71
2022/04/26 08:52:57;;;;;;;11.95;2.83;;;;;;;10.10;100.00;101821.44;10347692;28;20038;-72
2022/04/26 08:57:58;;;;;;;11.15;3.15;;;;;;;10.24;100.00;101833.97;10347286;28;20040;-71
2022/04/26 09:03:03;;;;;;;10.95;3.10;;;;;;;10.50;100.00;101826.53;10344988;28;20113;-71
2022/04/26 09:08:18;;;;;;;9.57;2.58;;;;;;;10.86;100.00;101827.53;10342979;28;20053;-71
2022/04/26 09:13:20;;;;;;;9.90;2.60;;;;;;;11.13;100.00;101827.16;10345531;28;20018;-70
2022/04/26 09:18:30;;;;;;;10.75;2.67;;;;;;;11.50;100.00;101819.56;10344706;28;20033;-71
2022/04/26 09:23:32;;;;;;;11.32;2.33;;;;;;;11.56;99.53;101829.66;10343337;28;20133;-70
2022/04/26 09:28:32;;;;;;;6.80;2.53;;;;;;;11.11;100.00;101805.34;10343696;28;20034;-70
2022/04/26 09:33:38;;;;;;;8.55;2.88;;;;;;;11.43;100.00;101825.22;10346445;28;20026;-70
2022/04/26 09:38:39;;;;;;;10.02;2.65;;;;;;;11.97;100.00;101818.78;10343269;28;20038;-70
2022/04/26 09:43:40;;;;;;;7.97;3.22;;;;;;;12.45;96.37;101837.81;10343965;28;20030;-70
2022/04/26 09:48:40;;;;;;;8.05;2.60;;;;;;;12.97;91.44;101823.09;10344117;28;20042;-71
2022/04/26 09:53:41;;;;;;;5.03;2.92;;;;;;;13.70;89.54;101834.38;10345742;28;20076;-71
2022/04/26 09:58:42;;;;;;;6.95;2.65;;;;;;;14.13;85.35;101807.91;10345662;28;20026;-70
2022/04/26 10:03:43;;;;;;;10.05;2.88;;;;;;;13.22;84.63;101827.44;10343705;28;20426;-69
2022/04/26 10:08:44;;;;;;;7.35;2.70;;;;;;;12.40;89.00;101834.97;10355928;28;20038;-70
2022/04/26 10:13:45;;;;;;;9.35;2.80;;;;;;;12.40;88.67;101834.09;10367526;28;20022;-70
2022/04/26 10:18:47;;;;;;;4.93;3.35;;;;;;;13.03;88.85;101818.53;10368083;28;20025;-72
2022/04/26 10:23:50;;;;;;;4.25;2.05;;;;;;;13.81;85.20;101833.47;10384233;28;20038;-70
2022/04/26 10:28:51;;;;;;;6.57;2.00;;;;;;;13.90;82.36;101840.22;10381083;28;20112;-70
2022/04/26 10:33:53;;;;;;;8.93;2.15;;;;;;;14.24;80.14;101815.28;10385392;28;20540;-70
2022/04/26 10:39:05;;;;;;;4.93;2.53;;;;;;;14.15;78.69;101838.09;10381767;28;20034;-70
2022/04/26 10:44:26;;;;;;;4.63;1.92;;;;;;;14.53;80.33;101840.00;10380165;28;20165;-70
2022/04/26 10:49:33;;;;;;;5.82;2.30;;;;;;;14.94;77.02;101837.75;10381998;28;20104;-71
2022/04/26 10:54:46;;;;;;;11.13;2.50;;;;;;;14.57;77.33;101843.97;10381884;28;20049;-69
2022/04/26 10:59:50;;;;;;;7.00;2.38;;;;;;;14.69;77.12;101850.22;10384390;28;20033;-70
2022/04/26 11:05:03;;;;;;;4.85;2.10;;;;;;;13.97;76.18;101822.59;10377130;28;20048;-70
2022/04/26 11:10:04;;;;;;;5.70;2.30;;;;;;;14.54;78.43;101850.00;10380691;28;20235;-69
2022/04/26 11:15:22;;;;;;;6.53;2.55;;;;;;;15.08;75.17;101840.97;10388238;28;20085;-71
2022/04/26 11:20:24;;;;;;;5.88;2.67;;;;;;;14.85;74.26;101848.47;10389911;28;20046;-71
2022/04/26 11:30:55;;;;;;;9.52;2.53;;;;;;;14.89;74.61;101854.34;10390486;28;20029;-71
2022/04/26 11:36:01;;;;;;;9.45;2.22;;;;;;;14.35;73.52;101854.19;10353635;28;20490;-71
2022/04/26 11:41:02;;;;;;;7.97;2.53;;;;;;;14.83;74.27;101844.28;10390587;28;20037;-71
2022/04/26 11:46:02;;;;;;;5.75;2.47;;;;;;;15.61;71.04;101855.91;10390681;28;20041;-71
2022/04/26 11:51:03;;;;;;;5.47;2.72;;;;;;;15.31;70.96;101862.81;10391101;28;20033;-71
2022/04/26 11:56:04;;;;;;;7.80;2.42;;;;;;;14.85;70.01;101865.09;10389421;28;20048;-71
2022/04/26 12:01:16;;;;;;;9.68;3.13;;;;;;;15.25;69.98;101860.28;10348705;28;20055;-71
2022/04/26 12:06:18;;;;;;;7.22;2.17;;;;;;;16.73;66.37;101861.38;10356084;28;20038;-71
2022/04/26 12:11:20;;;;;;;15.43;3.20;;;;;;;17.93;63.58;101856.59;10323397;28;20049;-71
2022/04/26 12:16:21;;;;;;;6.70;1.92;;;;;;;17.93;59.72;101859.38;10310684;28;20043;-71
2022/04/26 12:21:22;;;;;;;6.80;1.95;;;;;;;18.21;60.01;101862.72;10372795;28;20042;-72
2022/04/26 12:26:23;;;;;;;11.18;2.75;;;;;;;19.04;54.34;101796.25;10372414;28;20053;-72
2022/04/26 12:31:25;;;;;;;4.85;2.45;;;;;;;18.99;54.03;101839.00;10373220;28;20041;-72
2022/04/26 12:36:25;;;;;;;5.03;1.75;;;;;;;19.51;54.49;101834.75;10341388;28;20046;-71
2022/04/26 12:41:26;;;;;;;6.93;2.60;;;;;;;19.39;52.94;101842.66;10330356;28;20042;-71
2022/04/26 12:46:27;;;;;;;5.72;2.45;;;;;;;19.10;53.64;101795.09;10386865;28;20092;-71
2022/04/26 12:51:29;;;;;;;5.97;1.92;;;;;;;19.10;49.93;101821.06;10389375;28;20030;-72
2022/04/26 12:56:29;;;;;;;2.90;1.75;;;;;;;19.83;48.39;101835.34;10388491;28;20033;-73
2022/04/26 13:01:31;;;;;;;3.47;1.67;;;;;;;18.68;49.46;101839.13;10386345;28;20038;-71
2022/04/26 13:06:31;;;;;;;6.05;2.35;;;;;;;17.66;53.03;101862.44;10379828;28;20113;-72
2022/04/26 13:11:32;;;;;;;3.38;2.03;;;;;;;18.37;52.90;101852.34;10383530;28;20041;-72
2022/04/26 13:16:32;;;;;;;5.38;2.10;;;;;;;17.89;52.25;101858.28;10382161;28;20022;-70
2022/04/26 13:21:34;;;;;;;7.70;2.42;;;;;;;18.29;54.29;101862.13;10386598;28;20105;-71
2022/04/26 13:26:36;;;;;;;6.50;3.00;;;;;;;19.68;52.69;101844.66;10386157;28;20037;-72
2022/04/26 13:31:36;;;;;;;6.93;2.38;;;;;;;19.32;52.24;101847.72;10388453;28;20037;-72
2022/04/26 13:36:37;;;;;;;7.20;3.03;;;;;;;19.00;53.60;101851.84;10369554;28;20041;-71
2022/04/26 13:41:38;;;;;;;9.50;2.92;;;;;;;19.28;54.71;101860.59;10385839;28;20049;-70
2022/04/26 13:46:38;;;;;;;7.82;2.38;;;;;;;19.71;53.32;101849.69;10388502;28;20045;-71
2022/04/26 13:51:39;;;;;;;7.35;2.20;;;;;;;19.30;54.44;101852.75;10388146;28;20050;-72
2022/04/26 13:56:39;;;;;;;5.03;1.98;;;;;;;19.43;54.46;101859.66;10386770;28;20025;-72
2022/04/26 14:01:39;;;;;;;7.55;2.25;;;;;;;18.34;52.65;101800.78;10356568;28;20042;-70
2022/04/26 14:06:40;;;;;;;7.43;2.22;;;;;;;18.55;54.46;101840.56;10306433;28;20038;-71
2022/04/26 14:11:40;;;;;;;5.93;2.20;;;;;;;18.46;55.80;101863.72;10306709;28;20037;-74
2022/04/26 14:22:00;;;;;;;5.72;2.40;;;;;;;18.45;53.00;101845.34;10333142;28;20322;-70
2022/04/26 14:27:01;;;;;;;5.07;2.00;;;;;;;17.70;55.37;101857.97;10345943;28;20030;-70
2022/04/26 14:32:02;;;;;;;7.40;2.20;;;;;;;17.48;56.72;101855.47;10345088;28;20034;-78
2022/04/26 14:37:03;;;;;;;6.30;2.20;;;;;;;18.77;53.98;101839.38;10346292;28;20458;-71
2022/04/26 14:42:04;;;;;;;6.53;2.55;;;;;;;19.38;53.81;101846.56;10346481;28;20046;-70
2022/04/26 14:47:06;;;;;;;6.47;2.15;;;;;;;18.94;52.44;101861.34;10350387;28;20038;-70
2022/04/26 14:52:07;;;;;;;4.25;1.95;;;;;;;17.31;55.90;101885.50;10338857;28;20123;-70
2022/04/26 14:57:07;;;;;;;5.13;2.15;;;;;;;15.30;60.22;101885.31;10312740;28;20039;-70
2022/04/26 15:02:08;;;;;;;7.13;2.30;;;;;;;14.59;62.83;101894.44;10327271;28;20435;-70
2022/04/26 15:07:08;;;;;;;5.35;2.28;;;;;;;14.24;64.44;101922.44;10312759;28;20063;-70
2022/04/26 15:17:29;;;;;;;6.85;2.05;;;;;;;15.16;63.60;101893.19;10385949;28;20037;-70
2022/04/26 15:22:30;;;;;;;7.07;2.67;;;;;;;16.39;59.07;101882.31;10387832;28;20047;-68
2022/04/26 15:27:30;;;;;;;6.95;2.30;;;;;;;15.22;61.46;101891.31;10389852;28;20132;-68
2022/04/26 15:32:31;;;;;;;9.73;2.53;;;;;;;15.44;61.90;101900.44;10392088;28;20029;-69
2022/04/26 15:37:32;;;;;;;9.80;2.55;;;;;;;15.09;62.17;101907.28;10390348;28;20034;-68
2022/04/26 15:42:33;;;;;;;10.57;3.53;;;;;;;15.09;63.61;101925.84;10392041;28;20054;-69
2022/04/26 15:47:35;;;;;;;8.57;2.60;;;;;;;14.71;62.80;101917.31;10386152;28;20034;-69
2022/04/26 15:52:37;;;;;;;6.93;2.10;;;;;;;13.64;65.06;101877.75;10365399;28;20035;-70
2022/04/26 15:57:39;;;;;;;4.07;2.10;;;;;;;13.37;64.57;101932.84;10382865;28;20112;-70
2022/04/26 16:02:40;;;;;;;5.90;2.00;;;;;;;13.49;67.58;101944.69;10390668;28;20164;-70
2022/04/26 16:07:40;;;;;;;7.22;2.10;;;;;;;13.73;65.43;101947.34;10373528;28;20026;-69
2022/04/26 16:23:19;;;;;;;3.72;1.90;;;;;;;12.61;67.57;101952.25;10388533;28;20453;-70
2022/04/26 16:28:20;;;;;;;5.32;2.28;;;;;;;12.82;67.86;101897.44;10387779;28;20058;-70
2022/04/26 16:33:20;;;;;;;5.30;2.17;;;;;;;14.01;66.22;101943.66;10389014;28;20555;-70
2022/04/26 16:38:21;;;;;;;5.25;1.80;;;;;;;13.55;65.51;101944.78;10387736;28;20445;-70
2022/04/26 16:43:21;;;;;;;6.72;2.72;;;;;;;12.68;66.69;101960.41;10367254;28;20360;-70
2022/04/26 16:48:22;;;;;;;6.03;2.58;;;;;;;12.47;68.31;101968.22;10331182;28;20026;-69
2022/04/26 16:53:23;;;;;;;8.48;2.55;;;;;;;14.65;62.28;101923.88;10348078;28;20026;-70
2022/04/26 16:58:23;;;;;;;7.35;1.50;;;;;;;16.06;58.71;101918.50;10348167;28;20031;-69
2022/04/26 17:03:24;;;;;;;7.03;2.08;;;;;;;16.00;58.61;101935.38;10348938;28;20034;-69
2022/04/26 17:08:24;;;;;;;4.60;1.80;;;;;;;15.74;60.08;101937.94;10347744;28;20218;-70
2022/04/26 17:13:26;;;;;;;8.82;2.35;;;;;;;14.49;63.14;101958.84;10324188;28;20029;-69
2022/04/26 17:18:27;;;;;;;7.53;1.95;;;;;;;13.39;66.41;101958.31;10321793;28;20564;-70
2022/04/26 17:23:27;;;;;;;7.10;3.42;;;;;;;13.06;67.16;101989.41;10346133;28;20078;-70
2022/04/26 17:28:28;;;;;;;11.18;2.30;;;;;;;12.45;68.14;101991.66;10334401;28;20502;-70
2022/04/26 17:33:28;;;;;;;5.25;1.95;;;;;;;11.43;71.70;101952.03;10332955;28;20018;-70
2022/04/26 17:38:29;;;;;;;6.32;2.13;;;;;;;11.26;73.64;102022.66;10346445;28;20053;-70
2022/04/26 17:43:29;;;;;;;4.97;2.00;;;;;;;10.95;74.24;102016.22;10344787;28;20030;-70
2022/04/26 17:48:32;;;;;;;4.03;1.92;;;;;;;10.75;75.77;102029.38;10345627;28;20096;-70
2022/04/26 17:58:52;;;;;;;5.05;2.28;;;;;;;10.16;81.82;102053.59;10343538;28;20114;-69
2022/04/26 18:03:52;;;;;;;10.38;2.60;;;;;;;9.91;82.63;102043.38;10336972;28;20034;-70
2022/04/26 18:08:53;;;;;;;8.27;2.47;;;;;;;9.80;87.72;102052.34;10343353;28;20046;-70
2022/04/26 18:13:53;;;;;;;6.07;2.42;;;;;;;9.32;89.25;102001.38;10325102;28;20045;-71
2022/04/26 18:18:57;;;;;;;5.60;2.13;;;;;;;9.47;83.42;102042.34;10345808;28;20081;-70
2022/04/26 18:23:58;;;;;;;8.68;1.95;;;;;;;9.28;81.85;102050.47;10356870;28;20537;-70
2022/04/26 18:28:58;;;;;;;5.95;2.08;;;;;;;9.05;85.86;102050.09;10358645;28;20049;-70
2022/04/26 18:34:00;;;;;;;4.05;2.05;;;;;;;8.97;86.18;102064.94;10358697;28;20049;-70
2022/04/26 18:39:01;;;;;;;6.03;2.88;;;;;;;8.90;89.99;102086.06;10357499;28;20122;-70
2022/04/26 18:44:02;;;;;;;7.45;3.63;;;;;;;8.87;93.48;102108.47;10358500;28;20030;-70
2022/04/26 18:49:02;;;;;;;9.23;3.65;;;;;;;8.27;94.76;102040.66;10358812;28;20501;-70
2022/04/26 18:54:03;;;;;;;7.60;2.90;;;;;;;8.56;99.60;102112.69;10356194;28;20022;-70
2022/04/26 18:59:03;;;;;;;7.93;3.58;;;;;;;8.41;100.00;102125.75;10358125;28;20074;-70
2022/04/26 19:04:04;;;;;;;8.05;3.22;;;;;;;8.22;100.00;102130.97;10358586;28;20049;-70
2022/04/26 19:09:04;;;;;;;9.25;3.00;;;;;;;8.14;100.00;102142.13;10358734;28;20054;-70
2022/04/26 19:14:05;;;;;;;8.23;3.58;;;;;;;8.01;100.00;102145.69;10356695;28;20093;-73
2022/04/26 19:19:05;;;;;;;8.43;4.03;;;;;;;7.93;100.00;102156.84;10358901;28;20065;-71
2022/04/26 19:24:06;;;;;;;8.27;4.13;;;;;;;7.60;100.00;102121.91;10358756;28;20042;-72
2022/04/26 19:29:08;;;;;;;10.43;4.28;;;;;;;7.85;100.00;102160.63;10359196;28;20042;-72
2022/04/26 19:34:08;;;;;;;11.70;4.45;;;;;;;7.80;100.00;102189.69;10352619;28;20030;-72
2022/04/26 19:39:09;;;;;;;7.68;4.10;;;;;;;7.75;100.00;102179.34;10351659;28;20486;-72
2022/04/26 19:44:09;;;;;;;7.07;4.28;;;;;;;7.63;100.00;102178.22;10351090;28;20042;-72
2022/04/26 19:49:10;;;;;;;10.50;4.10;;;;;;;6.69;100.00;102052.72;10350216;28;20042;-71
2022/04/26 19:54:10;;;;;;;6.55;4.10;;;;;;;7.39;100.00;102187.78;10351259;28;20037;-71
2022/04/26 19:59:11;;;;;;;10.88;4.40;;;;;;;7.15;100.00;102169.91;10351779;28;20045;-71
2022/04/26 20:04:12;;;;;;;11.35;4.88;;;;;;;6.91;100.00;102185.75;10334010;28;20093;-72
2022/04/26 20:09:12;;;;;;;9.93;4.68;;;;;;;6.84;100.00;102201.25;10348387;28;20582;-72
2022/04/26 20:14:13;;;;;;;11.02;5.13;;;;;;;6.63;100.00;102200.22;10331282;28;20033;-72
2022/04/26 20:19:14;;;;;;;11.77;5.32;;;;;;;6.59;100.00;102203.53;10324010;28;20027;-72
2022/04/26 20:24:14;;;;;;;11.07;5.03;;;;;;;6.44;100.00;102195.41;10308806;28;20050;-71
2022/04/26 20:34:34;;;;;;;10.48;5.60;;;;;;;6.26;100.00;102196.69;10307316;28;20025;-72
2022/04/26 20:39:35;;;;;;;16.25;6.25;;;;;;;6.01;100.00;102196.16;10348391;28;20056;-72
2022/04/26 20:44:38;;;;;;;11.73;5.95;;;;;;;5.98;100.00;102212.13;10346318;28;20030;-71
2022/04/26 20:49:39;;;;;;;12.15;6.32;;;;;;;5.83;100.00;102210.22;10348608;28;20041;-72
2022/04/26 20:54:39;;;;;;;8.93;5.93;;;;;;;5.65;100.00;102207.88;10346963;28;20026;-71
2022/04/26 20:59:40;;;;;;;16.05;6.55;;;;;;;5.50;100.00;102209.78;10346216;28;20037;-71
2022/04/26 21:04:40;;;;;;;14.95;6.57;;;;;;;5.54;100.00;102232.06;10346741;28;20030;-71
2022/04/26 21:09:41;;;;;;;14.18;7.13;;;;;;;5.34;100.00;102235.38;10345970;28;20038;-72
2022/04/26 21:14:41;;;;;;;12.88;7.30;;;;;;;5.19;100.00;102229.06;10344405;28;20125;-71
2022/04/26 21:19:42;;;;;;;24.35;8.13;;;;;;;5.18;100.00;102241.00;10345560;28;20035;-71
2022/04/26 21:24:46;;;;;;;13.50;7.90;;;;;;;5.01;100.00;102238.41;10305738;28;20499;-72
2022/04/26 21:29:46;;;;;;;14.82;6.30;;;;;;;5.00;100.00;102247.66;10302932;28;20019;-72
2022/04/26 21:34:47;;;;;;;14.35;6.90;;;;;;;4.76;100.00;102220.56;10302628;28;20431;-71
2022/04/26 21:39:47;;;;;;;18.90;8.63;;;;;;;4.86;100.00;102256.63;10306036;28;20400;-71
2022/04/26 21:44:47;;;;;;;10.82;6.85;;;;;;;4.78;100.00;102259.41;10310352;28;20035;-72
2022/04/26 21:55:08;;;;;;;16.55;7.28;;;;;;;4.49;100.00;102236.44;10307007;28;20035;-71
2022/04/26 22:00:38;;;;;;;12.95;7.95;;;;;;;4.67;100.00;102285.22;10305386;28;20522;-71
2022/04/26 22:05:39;;;;;;;11.93;7.38;;;;;;;4.64;100.00;102261.88;10305044;28;20082;-72
2022/04/26 22:10:40;;;;;;;12.70;7.43;;;;;;;4.64;100.00;102264.59;10305052;28;20027;-72
2022/04/26 22:15:40;;;;;;;12.52;6.45;;;;;;;4.58;100.00;102276.25;10306962;28;20046;-71
2022/04/26 22:20:41;;;;;;;11.82;7.63;;;;;;;4.45;100.00;102268.66;10305769;28;20078;-71
2022/04/26 22:25:42;;;;;;;12.07;7.05;;;;;;;4.44;100.00;102280.59;10304911;28;20042;-71
2022/04/26 22:30:42;;;;;;;12.23;8.05;;;;;;;4.21;100.00;102256.00;10306138;28;20031;-72
2022/04/26 22:35:43;;;;;;;12.55;6.88;;;;;;;4.34;100.00;102292.75;10306115;28;20030;-72
2022/04/26 22:40:43;;;;;;;16.20;7.82;;;;;;;3.88;100.00;102219.03;10305671;28;20042;-72
2022/04/26 22:45:44;;;;;;;11.98;8.15;;;;;;;4.25;100.00;102297.38;10306348;28;20085;-72
2022/04/26 22:50:44;;;;;;;12.98;7.40;;;;;;;4.17;100.00;102292.81;10306683;28;20031;-71
2022/04/26 22:55:44;;;;;;;13.23;7.60;;;;;;;3.12;100.00;102148.69;10312492;28;20044;-71
2022/04/26 23:00:45;;;;;;;12.77;7.15;;;;;;;3.95;100.00;102290.84;10345079;28;20037;-72
2022/04/26 23:05:45;;;;;;;18.17;7.97;;;;;;;3.96;100.00;102308.91;10344114;28;20050;-72
2022/04/26 23:10:46;;;;;;;15.77;7.85;;;;;;;3.86;100.00;102305.53;10352081;28;20039;-72
2022/04/26 23:15:47;;;;;;;16.63;7.53;;;;;;;3.80;100.00;102313.41;10343429;28;20050;-71
2022/04/26 23:20:47;;;;;;;14.45;6.88;;;;;;;3.72;100.00;102307.97;10311914;28;20050;-72
2022/04/26 23:25:48;;;;;;;18.77;6.95;;;;;;;3.52;100.00;102291.16;10312601;28;20034;-72
2022/04/26 23:30:49;;;;;;;11.40;6.60;;;;;;;3.61;100.00;102321.94;10312534;28;20038;-72
2022/04/26 23:35:50;;;;;;;12.38;6.95;;;;;;;3.50;100.00;102308.69;10310077;28;20042;-72
2022/04/26 23:40:52;;;;;;;14.88;7.72;;;;;;;3.39;100.00;102331.66;10310502;28;20758;-72
2022/04/26 23:45:52;;;;;;;11.55;7.32;;;;;;;3.41;100.00;102332.34;10312386;28;20070;-71
2022/04/26 23:56:12;;;;;;;14.43;8.02;;;;;;;3.39;100.00;102340.69;10326464;28;20288;-71
